Fourmile Hill, Arkansas
Current Conditions -  °F | °C
As of 8:56 AM on Monday 24 Nov 2014 (Local Time) from KSRC Reporting Station
Clear Clear  
Wind Chill: 42°   Ceiling: Unl
Heat Index: 47°   Visibility: 10mi
Dew Point: 36°   Wind: 12mph
Humidity: 66%   Direction: 260°W
Pressure: 29.88"   Gusts: NA
Location:  35.2662°N, 91.8491°W
Report Text: KSRC 241456Z AUTO 26010KT 10SM CLR 08/02 A2988 RMK AO2 SLP125 T00830022 51038 TSNO
Loading
Personal Weather Stations






























Interactive Weather Map New forecast layout! Learn more

10-Day Weather Forecast

Advertisements
Track Severe Weather on mobile